Time;durP1;ratioP1;P1;durP2;ratioP2;P2;SDS_P1;SDS_P2;PMS_P1;PMS_P2;Temp;Humidity;BMP_temperature;BMP_pressure;BME280_temperature;BME280_humidity;BME280_pressure;Samples;Min_cycle;Max_cycle;Signal;HPM_P1;HPM_P2
2022/11/12 00:01:42;;;;;;;14.87;10.77;;;8.10;99.90;;;;;;5018718;28;20249;-79
2022/11/12 00:04:28;;;;;;;15.90;10.57;;;8.10;99.90;;;;;;5018700;28;20226;-78
2022/11/12 00:07:14;;;;;;;16.07;11.00;;;8.00;99.90;;;;;;5016728;28;20239;-79
2022/11/12 00:09:59;;;;;;;14.70;10.73;;;8.00;99.90;;;;;;5017854;28;20243;-79
2022/11/12 00:12:48;;;;;;;20.93;11.40;;;8.00;99.90;;;;;;5022928;28;20229;-79
2022/11/12 00:15:35;;;;;;;17.00;10.97;;;8.00;99.90;;;;;;5015854;28;20232;-79
2022/11/12 00:18:20;;;;;;;14.13;10.23;;;8.00;99.90;;;;;;5020024;28;20231;-79
2022/11/12 00:21:06;;;;;;;15.10;10.20;;;8.00;99.90;;;;;;5021578;28;20358;-79
2022/11/12 00:23:51;;;;;;;13.37;10.47;;;8.00;99.90;;;;;;5022634;28;20895;-79
2022/11/12 00:26:37;;;;;;;16.10;11.23;;;8.00;99.90;;;;;;5018937;28;20267;-79
2022/11/12 00:29:22;;;;;;;15.77;11.07;;;8.10;99.90;;;;;;5017553;28;20230;-78
2022/11/12 00:32:09;;;;;;;19.93;11.77;;;8.10;99.90;;;;;;5019454;28;20355;-79
2022/11/12 00:34:55;;;;;;;16.77;10.33;;;8.10;99.90;;;;;;5022218;28;20723;-79
2022/11/12 00:37:40;;;;;;;17.90;11.23;;;8.20;99.90;;;;;;5019456;28;20267;-79
2022/11/12 00:40:28;;;;;;;16.10;11.43;;;8.20;99.90;;;;;;5017279;28;20237;-80
2022/11/12 00:43:15;;;;;;;14.53;11.07;;;8.20;99.90;;;;;;5012734;28;20233;-79
2022/11/12 00:46:00;;;;;;;16.67;11.07;;;8.20;99.90;;;;;;5014541;28;20226;-75
2022/11/12 00:48:47;;;;;;;21.13;11.40;;;8.30;99.90;;;;;;5023034;28;20238;-76
2022/11/12 00:51:33;;;;;;;16.00;11.73;;;8.20;99.90;;;;;;5015314;28;20226;-75
2022/11/12 00:54:18;;;;;;;17.50;11.37;;;8.30;99.90;;;;;;5013746;28;20716;-76
2022/11/12 00:57:03;;;;;;;16.77;11.73;;;8.30;99.90;;;;;;5019024;28;20226;-76
2022/11/12 00:59:49;;;;;;;15.13;11.50;;;8.30;99.90;;;;;;5008385;28;20972;-76
2022/11/12 01:02:34;;;;;;;17.33;11.80;;;8.30;99.90;;;;;;5021615;28;20231;-76
2022/11/12 01:05:21;;;;;;;17.40;11.33;;;8.30;99.90;;;;;;5013447;28;20601;-76
2022/11/12 01:08:07;;;;;;;18.17;12.70;;;8.30;99.90;;;;;;5020463;28;20229;-76
2022/11/12 01:10:52;;;;;;;19.10;12.10;;;8.30;99.90;;;;;;5016373;28;20439;-76
2022/11/12 01:13:39;;;;;;;14.37;11.43;;;8.30;99.90;;;;;;5019636;28;20230;-76
2022/11/12 01:16:27;;;;;;;14.70;10.50;;;8.30;99.90;;;;;;5017623;28;20301;-76
2022/11/12 01:19:13;;;;;;;16.87;11.57;;;8.40;99.90;;;;;;5013306;28;20766;-75
2022/11/12 01:21:59;;;;;;;18.43;11.80;;;8.30;99.90;;;;;;5019501;28;20774;-75
2022/11/12 01:24:45;;;;;;;17.13;11.63;;;8.40;99.90;;;;;;5020070;28;20230;-75
2022/11/12 01:27:30;;;;;;;14.10;11.03;;;8.40;99.90;;;;;;5020535;28;20707;-75
2022/11/12 01:30:16;;;;;;;16.60;11.13;;;8.40;99.90;;;;;;5020862;28;20238;-75
2022/11/12 01:33:01;;;;;;;15.07;11.43;;;8.40;99.90;;;;;;5018464;28;20290;-75
2022/11/12 01:35:47;;;;;;;17.27;12.10;;;8.40;99.90;;;;;;5017260;28;20620;-75
2022/11/12 01:38:35;;;;;;;14.80;10.40;;;8.50;99.90;;;;;;5020836;28;20280;-75
2022/11/12 01:41:23;;;;;;;16.47;11.73;;;8.50;99.90;;;;;;5013225;28;20221;-75
2022/11/12 01:44:11;;;;;;;15.20;10.50;;;8.50;99.90;;;;;;5018986;28;20894;-76
2022/11/12 01:47:02;;;;;;;19.20;11.20;;;8.50;99.90;;;;;;5020586;28;20231;-76
2022/11/12 01:49:53;;;;;;;16.43;10.03;;;8.40;99.90;;;;;;5010995;28;20274;-76
2022/11/12 01:52:43;;;;;;;17.17;9.93;;;8.50;99.90;;;;;;5015051;28;20231;-76
2022/11/12 01:55:34;;;;;;;16.17;10.77;;;8.50;99.90;;;;;;5019006;28;20226;-76
2022/11/12 01:58:24;;;;;;;16.87;10.93;;;8.50;99.90;;;;;;5017969;28;20244;-76
2022/11/12 02:01:09;;;;;;;14.33;10.37;;;8.60;99.90;;;;;;5018025;28;20662;-76
2022/11/12 02:03:56;;;;;;;15.37;9.73;;;8.60;99.90;;;;;;5014999;28;20281;-76
2022/11/12 02:06:43;;;;;;;15.57;10.73;;;8.60;99.90;;;;;;5015388;28;20353;-76
2022/11/12 02:09:28;;;;;;;16.00;10.40;;;8.60;99.90;;;;;;5017646;28;20958;-75
2022/11/12 02:13:56;;;;;;;15.57;10.40;;;8.70;99.90;;;;;;5008992;28;20727;-76
2022/11/12 02:15:20;;;;;;;13.73;9.77;;;8.70;99.90;;;;;;5014724;28;20217;-76
2022/11/12 02:18:08;;;;;;;13.73;9.40;;;8.70;99.90;;;;;;5021880;28;20276;-76
2022/11/12 02:20:55;;;;;;;15.03;9.10;;;8.70;99.90;;;;;;5017888;28;20330;-76
2022/11/12 02:23:44;;;;;;;14.63;9.43;;;8.70;99.90;;;;;;5021966;28;20231;-76
2022/11/12 02:26:33;;;;;;;12.97;9.53;;;8.70;99.90;;;;;;5016105;28;20301;-75
2022/11/12 02:29:18;;;;;;;12.43;9.80;;;8.60;99.90;;;;;;5009815;28;20320;-75
2022/11/12 02:32:04;;;;;;;12.83;9.00;;;8.60;99.90;;;;;;5030914;28;20298;-76
2022/11/12 02:34:49;;;;;;;14.17;9.37;;;8.50;99.90;;;;;;5023505;28;20228;-76
2022/11/12 02:37:34;;;;;;;12.23;9.63;;;8.50;99.90;;;;;;5019990;28;20785;-76
2022/11/12 02:40:21;;;;;;;13.53;9.20;;;8.30;99.90;;;;;;5018259;28;21028;-75
2022/11/12 02:43:06;;;;;;;14.43;9.23;;;8.20;99.90;;;;;;5021528;28;20293;-75
2022/11/12 02:45:52;;;;;;;14.00;9.63;;;8.10;99.90;;;;;;5021631;28;20391;-75
2022/11/12 02:48:37;;;;;;;15.83;9.77;;;8.00;99.90;;;;;;5014757;28;20227;-75
2022/11/12 02:51:22;;;;;;;14.70;10.13;;;7.90;99.90;;;;;;5013416;28;20235;-75
2022/11/12 02:54:08;;;;;;;15.20;9.90;;;7.80;99.90;;;;;;5019550;28;20264;-75
2022/11/12 02:56:54;;;;;;;13.27;10.03;;;7.70;99.90;;;;;;5025064;28;20225;-75
2022/11/12 02:59:40;;;;;;;11.33;9.17;;;7.60;99.90;;;;;;5020219;28;20882;-75
2022/11/12 03:02:25;;;;;;;14.87;8.97;;;7.50;99.90;;;;;;5021646;28;20287;-75
2022/11/12 03:05:11;;;;;;;15.33;9.77;;;7.40;99.90;;;;;;5020592;28;20312;-75
2022/11/12 03:07:58;;;;;;;13.30;9.47;;;7.30;99.90;;;;;;5022488;28;20229;-76
2022/11/12 03:10:43;;;;;;;14.73;10.47;;;7.20;99.90;;;;;;5018107;28;20287;-76
2022/11/12 03:13:30;;;;;;;18.33;10.97;;;7.20;99.90;;;;;;5007349;28;20794;-76
2022/11/12 03:16:15;;;;;;;14.07;9.80;;;7.10;99.90;;;;;;5018303;28;20250;-76
2022/11/12 03:19:01;;;;;;;14.13;10.00;;;7.00;99.90;;;;;;5022588;28;21069;-75
2022/11/12 03:21:48;;;;;;;14.13;9.83;;;6.90;99.90;;;;;;5020201;28;20227;-76
2022/11/12 03:24:33;;;;;;;15.63;10.33;;;6.90;99.90;;;;;;5020420;28;20653;-76
2022/11/12 03:27:18;;;;;;;12.63;9.53;;;6.80;99.90;;;;;;5020357;28;20229;-75
2022/11/12 03:30:06;;;;;;;14.87;10.57;;;6.70;99.90;;;;;;5018933;28;20298;-75
2022/11/12 03:32:52;;;;;;;13.93;9.97;;;6.60;99.90;;;;;;5019704;28;20382;-75
2022/11/12 03:35:38;;;;;;;14.00;10.53;;;6.50;99.90;;;;;;5023719;28;20231;-75
2022/11/12 03:38:26;;;;;;;13.00;10.03;;;6.50;99.90;;;;;;5019921;28;20656;-75
2022/11/12 03:41:11;;;;;;;15.37;9.80;;;6.40;99.90;;;;;;5022133;28;20329;-76
2022/11/12 03:43:57;;;;;;;14.63;10.33;;;6.40;99.90;;;;;;5025071;28;20568;-75
2022/11/12 03:46:44;;;;;;;14.63;10.67;;;6.30;99.90;;;;;;5021758;28;20240;-75
2022/11/12 03:49:29;;;;;;;12.73;9.27;;;6.30;99.90;;;;;;5010680;28;20239;-75
2022/11/12 03:52:14;;;;;;;15.63;10.67;;;6.20;99.90;;;;;;5021275;28;20611;-75
2022/11/12 03:55:02;;;;;;;14.83;11.17;;;6.10;99.90;;;;;;5017464;28;20753;-76
2022/11/12 03:57:49;;;;;;;15.73;10.90;;;6.10;99.90;;;;;;5018376;28;20231;-76
2022/11/12 04:00:35;;;;;;;15.60;11.47;;;6.00;99.90;;;;;;5014628;28;20261;-76
2022/11/12 04:03:21;;;;;;;13.60;10.33;;;6.00;99.90;;;;;;5021666;28;20250;-76
2022/11/12 04:09:11;;;;;;;18.33;11.73;;;5.90;99.90;;;;;;5021086;28;20259;-75
2022/11/12 04:13:26;;;;;;;15.37;11.50;;;5.80;99.90;;;;;;5019904;28;20223;-75
2022/11/12 04:15:03;;;;;;;13.87;10.10;;;5.90;99.90;;;;;;5015087;28;20911;-75
2022/11/12 04:23:56;;;;;;;16.47;11.43;;;5.70;99.90;;;;;;5023026;28;20226;-76
2022/11/12 04:26:40;;;;;;;14.20;10.47;;;5.60;99.90;;;;;;5015134;28;20305;-75
2022/11/12 04:32:30;;;;;;;23.50;21.00;;;5.50;99.90;;;;;;5020414;28;20229;-76
2022/11/12 04:35:17;;;;;;;20.77;14.90;;;5.50;99.90;;;;;;5017009;28;20357;-75
2022/11/12 04:38:04;;;;;;;16.17;11.00;;;5.40;99.90;;;;;;5017068;28;20226;-76
2022/11/12 04:46:55;;;;;;;17.60;13.00;;;5.30;99.90;;;;;;5019180;28;20222;-75
2022/11/12 04:49:40;;;;;;;16.53;11.70;;;5.30;99.90;;;;;;5021560;28;20361;-75
2022/11/12 04:52:26;;;;;;;15.27;11.90;;;5.20;99.90;;;;;;5021794;28;20345;-76
2022/11/12 04:55:14;;;;;;;17.40;12.47;;;5.20;99.90;;;;;;5021720;28;20304;-76
2022/11/12 04:58:00;;;;;;;16.07;10.93;;;5.20;99.90;;;;;;5021934;28;20243;-76
2022/11/12 05:00:46;;;;;;;18.20;12.00;;;5.10;99.90;;;;;;5018368;28;20241;-76
2022/11/12 05:03:31;;;;;;;19.03;13.17;;;5.10;99.90;;;;;;5017411;28;20431;-75
2022/11/12 05:09:20;;;;;;;17.37;11.33;;;5.00;99.90;;;;;;5015356;28;20237;-75
2022/11/12 05:12:10;;;;;;;14.23;11.00;;;5.00;99.90;;;;;;5019652;28;20288;-75
2022/11/12 05:14:56;;;;;;;17.40;11.53;;;5.00;99.90;;;;;;5020103;28;20985;-76
2022/11/12 05:17:43;;;;;;;15.43;11.80;;;4.90;99.90;;;;;;5019483;28;20244;-76
2022/11/12 05:20:28;;;;;;;15.43;11.70;;;4.90;99.90;;;;;;5021476;28;20236;-76
2022/11/12 05:23:13;;;;;;;16.17;11.77;;;4.80;99.90;;;;;;5015519;28;20786;-78
2022/11/12 05:25:59;;;;;;;16.70;12.17;;;4.80;99.90;;;;;;5016905;28;20774;-78
2022/11/12 05:28:47;;;;;;;18.10;12.00;;;4.80;99.90;;;;;;5018198;28;20240;-77
2022/11/12 05:31:36;;;;;;;17.03;12.63;;;4.70;99.90;;;;;;5013622;28;20245;-76
2022/11/12 05:34:22;;;;;;;46.20;39.63;;;4.70;99.90;;;;;;5012599;28;20429;-76
2022/11/12 05:37:08;;;;;;;28.37;24.83;;;4.70;99.90;;;;;;5019833;28;20225;-80
2022/11/12 05:39:53;;;;;;;21.00;16.07;;;4.60;99.90;;;;;;5015233;28;20232;-83
2022/11/12 05:42:39;;;;;;;18.73;14.20;;;4.60;99.90;;;;;;5023163;28;20306;-80
2022/11/12 05:45:26;;;;;;;17.73;14.10;;;4.60;99.90;;;;;;5018762;28;20239;-81
2022/11/12 05:48:11;;;;;;;21.93;14.77;;;4.60;99.90;;;;;;5017118;28;20307;-83
2022/11/12 05:50:56;;;;;;;16.67;12.13;;;4.60;99.90;;;;;;5021741;28;21058;-81
2022/11/12 05:53:44;;;;;;;15.67;12.27;;;4.50;99.90;;;;;;5022888;28;20228;-80
2022/11/12 05:56:32;;;;;;;20.67;13.10;;;4.50;99.90;;;;;;5020335;28;20229;-80
2022/11/12 05:59:18;;;;;;;19.17;12.57;;;4.50;99.90;;;;;;5023204;28;20238;-80
2022/11/12 06:02:04;;;;;;;15.27;11.83;;;4.40;99.90;;;;;;5021075;28;20287;-79
2022/11/12 06:04:50;;;;;;;16.47;11.80;;;4.40;99.90;;;;;;5020812;28;20584;-83
2022/11/12 06:07:35;;;;;;;15.67;12.00;;;4.30;99.90;;;;;;5008364;28;20234;-80
2022/11/12 06:10:20;;;;;;;13.27;11.50;;;4.30;99.90;;;;;;5027617;28;20292;-80
2022/11/12 06:13:05;;;;;;;16.50;11.87;;;4.30;99.90;;;;;;5021122;28;20224;-79
2022/11/12 06:15:51;;;;;;;16.40;10.77;;;4.20;99.90;;;;;;5022648;28;20229;-79
2022/11/12 06:18:38;;;;;;;19.73;12.83;;;4.20;99.90;;;;;;5022941;28;20234;-79
2022/11/12 06:21:26;;;;;;;16.00;11.77;;;4.10;99.90;;;;;;5018189;28;20244;-79
2022/11/12 06:24:11;;;;;;;15.40;11.80;;;4.20;99.90;;;;;;5022895;28;20226;-79
2022/11/12 06:26:56;;;;;;;15.43;11.20;;;4.10;99.90;;;;;;5026786;28;20229;-79
2022/11/12 06:29:44;;;;;;;16.53;12.63;;;4.10;99.90;;;;;;5022011;28;20280;-79
2022/11/12 06:32:30;;;;;;;15.83;11.53;;;4.00;99.90;;;;;;5020420;28;20810;-79
2022/11/12 06:35:18;;;;;;;18.10;12.30;;;4.00;99.90;;;;;;5023721;28;21190;-79
2022/11/12 06:38:03;;;;;;;16.17;11.07;;;4.00;99.90;;;;;;5023186;28;20252;-78
2022/11/12 06:40:48;;;;;;;17.33;13.03;;;3.90;99.90;;;;;;5024395;28;20231;-79
2022/11/12 06:43:34;;;;;;;17.57;13.07;;;3.90;99.90;;;;;;5025212;28;20228;-79
2022/11/12 06:46:19;;;;;;;17.13;12.47;;;3.90;99.90;;;;;;5018565;28;20236;-79
2022/11/12 06:49:05;;;;;;;21.30;12.53;;;3.80;99.90;;;;;;5016477;28;20232;-79
2022/11/12 06:51:59;;;;;;;17.77;12.53;;;3.80;99.90;;;;;;5029621;28;20284;-79
2022/11/12 06:54:44;;;;;;;17.37;12.37;;;3.90;99.90;;;;;;5023778;28;20234;-78
2022/11/12 06:57:41;;;;;;;18.77;13.80;;;3.80;99.90;;;;;;5023835;28;20605;-79
2022/11/12 07:00:26;;;;;;;56.83;31.83;;;3.80;99.90;;;;;;5023355;28;20297;-80
2022/11/12 07:03:13;;;;;;;80.73;38.43;;;3.80;99.90;;;;;;5013995;28;20732;-78
2022/11/12 07:06:02;;;;;;;70.67;37.23;;;3.80;99.90;;;;;;5023038;28;20228;-78
2022/11/12 07:08:50;;;;;;;31.83;19.60;;;3.80;99.90;;;;;;5021034;28;20658;-78
2022/11/12 07:11:35;;;;;;;28.03;18.73;;;3.90;99.90;;;;;;5027460;28;20233;-79
2022/11/12 07:14:20;;;;;;;44.37;29.17;;;3.80;99.90;;;;;;5010979;28;20233;-79
2022/11/12 07:17:05;;;;;;;25.93;18.40;;;3.80;99.90;;;;;;5022603;28;20221;-82
2022/11/12 07:19:50;;;;;;;28.43;20.33;;;3.80;99.90;;;;;;5025558;28;20232;-82
2022/11/12 07:22:38;;;;;;;23.23;17.77;;;3.90;99.90;;;;;;5023543;28;20302;-82
2022/11/12 07:25:25;;;;;;;21.83;14.57;;;3.90;99.90;;;;;;5021639;28;20310;-81
2022/11/12 07:28:10;;;;;;;25.23;18.80;;;3.90;99.90;;;;;;5021981;28;20262;-81
2022/11/12 07:31:00;;;;;;;19.60;13.47;;;3.90;99.90;;;;;;5014484;28;20825;-81
2022/11/12 07:33:47;;;;;;;24.20;16.23;;;4.00;99.90;;;;;;5025318;28;20233;-82
2022/11/12 07:36:33;;;;;;;47.70;29.53;;;4.00;99.90;;;;;;5019121;28;20233;-82
2022/11/12 07:39:18;;;;;;;28.33;19.83;;;4.10;99.90;;;;;;5025574;28;20304;-83
2022/11/12 07:42:08;;;;;;;23.93;17.47;;;4.10;99.90;;;;;;5024250;28;20236;-78
2022/11/12 07:44:53;;;;;;;30.63;20.43;;;4.20;99.90;;;;;;5023442;28;20279;-78
2022/11/12 07:47:39;;;;;;;30.97;21.33;;;4.20;99.90;;;;;;5020759;28;20915;-79
2022/11/12 07:50:24;;;;;;;26.40;16.97;;;4.30;99.90;;;;;;5027645;28;20252;-79
2022/11/12 07:53:09;;;;;;;22.53;15.67;;;4.40;99.90;;;;;;5021800;28;20306;-79
2022/11/12 07:55:55;;;;;;;17.30;13.20;;;4.60;99.90;;;;;;5028876;28;20230;-80
2022/11/12 07:58:42;;;;;;;16.53;12.70;;;4.70;99.90;;;;;;5024222;28;20230;-79
2022/11/12 08:01:32;;;;;;;17.20;12.80;;;4.90;99.90;;;;;;5006273;28;20304;-79
2022/11/12 08:04:17;;;;;;;17.03;12.87;;;5.10;99.90;;;;;;5024937;28;20224;-80
2022/11/12 08:07:03;;;;;;;17.53;12.50;;;5.40;99.90;;;;;;5018273;28;20962;-79
2022/11/12 08:09:48;;;;;;;16.90;12.13;;;5.50;99.90;;;;;;5025598;28;20241;-80
2022/11/12 08:12:33;;;;;;;14.87;11.13;;;5.70;99.90;;;;;;5025713;28;20851;-81
2022/11/12 08:15:20;;;;;;;16.80;10.70;;;6.10;99.90;;;;;;5019451;28;20234;-78
2022/11/12 08:18:06;;;;;;;13.77;10.87;;;6.20;99.90;;;;;;5015726;28;20232;-80
2022/11/12 08:20:51;;;;;;;14.43;10.40;;;6.60;99.90;;;;;;5018138;28;20239;-78
2022/11/12 08:23:37;;;;;;;13.07;9.73;;;7.00;99.90;;;;;;5023795;28;20806;-78
2022/11/12 08:26:22;;;;;;;13.37;9.23;;;7.50;99.90;;;;;;5018514;28;20225;-79
2022/11/12 08:29:07;;;;;;;13.20;10.13;;;8.00;99.90;;;;;;5019623;28;20252;-80
2022/11/12 08:31:54;;;;;;;12.00;9.37;;;8.40;99.90;;;;;;5018115;28;20407;-80
2022/11/12 08:34:40;;;;;;;11.93;9.03;;;9.00;99.90;;;;;;5018593;28;20304;-80
2022/11/12 08:37:26;;;;;;;11.67;8.67;;;9.50;99.90;;;;;;5013882;28;23208;-80
2022/11/12 08:40:12;;;;;;;11.03;8.20;;;10.00;99.90;;;;;;5014407;28;20230;-80
2022/11/12 08:42:59;;;;;;;10.97;8.43;;;10.50;99.90;;;;;;5022278;28;20782;-81
2022/11/12 08:45:44;;;;;;;10.23;8.33;;;11.00;99.90;;;;;;5016385;28;20224;-79
2022/11/12 08:48:32;;;;;;;12.63;8.47;;;11.40;99.90;;;;;;5019072;28;20719;-81
2022/11/12 08:51:20;;;;;;;10.53;8.53;;;11.80;99.90;;;;;;5019538;28;20228;-84
2022/11/12 08:54:06;;;;;;;9.87;8.03;;;12.10;99.90;;;;;;5019053;28;20734;-82
2022/11/12 08:56:51;;;;;;;12.17;8.10;;;12.30;99.90;;;;;;5018754;28;20220;-80
2022/11/12 08:59:37;;;;;;;15.77;11.43;;;12.60;99.90;;;;;;5017105;28;21081;-80
2022/11/12 09:02:22;;;;;;;9.67;8.33;;;12.90;99.90;;;;;;5016108;28;20878;-81
2022/11/12 09:05:09;;;;;;;12.07;7.97;;;13.10;99.90;;;;;;5014364;28;20230;-81
2022/11/12 09:07:58;;;;;;;9.23;7.30;;;13.30;99.90;;;;;;5016069;28;20232;-82
2022/11/12 09:10:44;;;;;;;9.80;7.00;;;13.50;99.90;;;;;;5012083;28;20231;-82
2022/11/12 09:13:29;;;;;;;9.03;7.50;;;13.70;99.90;;;;;;5016730;28;20703;-82
2022/11/12 09:16:14;;;;;;;11.13;8.37;;;13.80;99.90;;;;;;5014670;28;20227;-82
2022/11/12 09:19:00;;;;;;;9.83;7.53;;;13.80;99.90;;;;;;5023604;28;20227;-81
2022/11/12 09:21:46;;;;;;;10.27;7.20;;;13.80;99.90;;;;;;5013087;28;20792;-81
2022/11/12 09:24:32;;;;;;;8.47;6.67;;;13.90;99.90;;;;;;5017634;28;20227;-82
2022/11/12 09:27:17;;;;;;;9.77;7.03;;;14.00;99.90;;;;;;5016542;28;20928;-82
2022/11/12 09:30:03;;;;;;;9.20;7.17;;;14.10;99.90;;;;;;5014441;28;20261;-83
2022/11/12 09:32:48;;;;;;;7.60;6.30;;;14.30;99.90;;;;;;5015766;28;20226;-81
2022/11/12 09:35:34;;;;;;;9.83;6.30;;;14.40;99.40;;;;;;5014898;28;20234;-82
2022/11/12 09:38:22;;;;;;;8.20;6.20;;;14.60;99.90;;;;;;5016670;28;20703;-81
2022/11/12 09:41:31;;;;;;;9.07;6.27;;;14.70;99.90;;;;;;5014107;28;20279;-82
2022/11/12 09:44:20;;;;;;;8.70;6.30;;;15.00;99.90;;;;;;5017832;28;20231;-82
2022/11/12 09:47:14;;;;;;;10.33;7.03;;;15.20;99.90;;;;;;5010961;28;20248;-82
2022/11/12 09:50:12;;;;;;;9.40;7.00;;;15.50;99.90;;;;;;5019253;28;20235;-81
2022/11/12 09:53:04;;;;;;;8.00;6.10;;;15.80;99.90;;;;;;5013744;28;20224;-82
2022/11/12 09:55:51;;;;;;;8.67;6.43;;;16.10;99.60;;;;;;5017057;28;20291;-82
2022/11/12 09:58:37;;;;;;;8.73;6.57;;;16.30;99.90;;;;;;5018338;28;20293;-83
2022/11/12 10:01:31;;;;;;;9.30;6.40;;;16.50;99.90;;;;;;5012929;28;20235;-82
2022/11/12 10:04:31;;;;;;;7.37;6.10;;;16.70;99.30;;;;;;5012637;28;20820;-82
2022/11/12 10:07:28;;;;;;;9.23;6.47;;;16.90;98.00;;;;;;5018631;28;20831;-81
2022/11/12 10:10:16;;;;;;;8.70;6.63;;;16.90;98.10;;;;;;5015952;28;20237;-84
2022/11/12 10:13:21;;;;;;;9.50;6.80;;;16.90;98.60;;;;;;5020123;28;20230;-81
2022/11/12 10:19:52;;;;;;;8.40;6.20;;;17.00;95.70;;;;;;5012972;28;20255;-82
2022/11/12 10:22:52;;;;;;;6.97;5.60;;;17.00;95.50;;;;;;5013337;28;20232;-82
2022/11/12 10:25:38;;;;;;;8.13;6.47;;;16.90;96.70;;;;;;5015385;28;20300;-83
2022/11/12 10:28:30;;;;;;;8.90;6.77;;;16.70;96.10;;;;;;5017158;28;20291;-81
2022/11/12 10:31:17;;;;;;;9.03;7.20;;;16.50;96.70;;;;;;5013912;28;20231;-82
2022/11/12 10:34:14;;;;;;;8.33;6.47;;;16.30;96.50;;;;;;5009046;28;20227;-82
2022/11/12 10:37:02;;;;;;;8.97;6.53;;;16.10;96.40;;;;;;5011779;28;20245;-83
2022/11/12 10:39:48;;;;;;;8.77;7.20;;;15.90;97.10;;;;;;5021884;28;20229;-82
2022/11/12 10:42:33;;;;;;;8.73;6.33;;;15.80;97.50;;;;;;5019503;28;20238;-83
2022/11/12 10:45:23;;;;;;;8.60;6.00;;;15.70;97.90;;;;;;5015082;28;20238;-81
2022/11/12 10:48:23;;;;;;;9.40;6.60;;;15.60;97.80;;;;;;5018134;28;20233;-83
2022/11/12 10:51:20;;;;;;;8.37;6.60;;;15.50;97.60;;;;;;5015875;28;20238;-83
2022/11/12 10:54:36;;;;;;;11.03;7.00;;;15.50;97.40;;;;;;5009225;28;20711;-83
2022/11/12 10:57:25;;;;;;;11.10;7.23;;;15.40;97.00;;;;;;5022380;28;20238;-82
2022/11/12 11:00:18;;;;;;;10.73;7.27;;;15.30;97.60;;;;;;5015096;28;20257;-83
2022/11/12 11:03:07;;;;;;;9.67;6.90;;;15.10;97.60;;;;;;5009520;28;20234;-81
2022/11/12 11:05:56;;;;;;;8.23;6.90;;;15.00;98.10;;;;;;5012794;28;20310;-80
2022/11/12 11:08:43;;;;;;;9.03;6.80;;;15.00;98.70;;;;;;5018413;28;20229;-80
2022/11/12 11:11:29;;;;;;;10.93;7.27;;;15.00;98.70;;;;;;5022186;28;21015;-80
2022/11/12 11:14:27;;;;;;;10.17;7.37;;;15.00;98.40;;;;;;5012716;28;20236;-80
2022/11/12 11:17:19;;;;;;;10.23;6.80;;;15.10;97.40;;;;;;5021550;28;20221;-80
2022/11/12 11:20:15;;;;;;;11.07;7.07;;;15.10;98.00;;;;;;5009536;28;20234;-80
2022/11/12 11:23:07;;;;;;;8.70;7.37;;;15.10;97.80;;;;;;5013705;28;20300;-80
2022/11/12 11:25:54;;;;;;;12.17;7.47;;;15.00;97.90;;;;;;5015042;28;20229;-81
2022/11/12 11:28:46;;;;;;;12.47;7.50;;;15.00;98.30;;;;;;5020206;28;20312;-80
2022/11/12 11:31:39;;;;;;;11.03;7.10;;;15.00;97.90;;;;;;5012094;28;20271;-80
2022/11/12 11:34:38;;;;;;;9.40;7.30;;;14.90;97.60;;;;;;5009587;28;20282;-79
2022/11/12 11:37:34;;;;;;;12.20;8.27;;;14.70;97.60;;;;;;5015083;28;20247;-76
2022/11/12 11:40:26;;;;;;;9.97;7.67;;;14.70;97.90;;;;;;5016635;28;20289;-76
2022/11/12 11:43:26;;;;;;;10.90;7.20;;;14.50;98.10;;;;;;5000176;28;20462;-76
2022/11/12 11:46:19;;;;;;;11.07;7.97;;;14.40;98.60;;;;;;5023019;28;20307;-76
2022/11/12 11:49:22;;;;;;;10.27;6.93;;;14.40;98.30;;;;;;5016142;28;20755;-76
2022/11/12 11:52:30;;;;;;;10.10;7.30;;;14.40;98.20;;;;;;5016034;28;20307;-76
2022/11/12 11:55:32;;;;;;;10.90;7.83;;;14.40;98.70;;;;;;5016939;28;20744;-76
2022/11/12 11:58:39;;;;;;;10.97;7.60;;;14.40;98.50;;;;;;5017106;28;20260;-76
2022/11/12 12:01:33;;;;;;;10.00;7.17;;;14.50;98.30;;;;;;5014087;28;20230;-76
2022/11/12 12:04:38;;;;;;;11.63;7.60;;;14.50;98.50;;;;;;5017448;28;20349;-76
2022/11/12 12:07:35;;;;;;;8.10;6.90;;;14.50;98.50;;;;;;5019265;28;20233;-76
2022/11/12 12:10:27;;;;;;;8.07;6.80;;;14.40;98.50;;;;;;5018447;28;20286;-76
2022/11/12 12:13:21;;;;;;;9.33;6.67;;;14.40;99.00;;;;;;5022402;28;20278;-76
2022/11/12 12:16:35;;;;;;;7.93;6.37;;;14.40;99.10;;;;;;5015510;28;20751;-76
2022/11/12 12:19:35;;;;;;;10.20;6.50;;;14.40;98.50;;;;;;5017755;28;20233;-76
2022/11/12 12:22:35;;;;;;;11.23;7.03;;;14.50;98.70;;;;;;5015482;28;21267;-76
2022/11/12 12:25:24;;;;;;;10.80;7.07;;;14.50;98.70;;;;;;5014521;28;20960;-76
2022/11/12 12:28:22;;;;;;;8.63;6.60;;;14.60;99.00;;;;;;5015474;28;20234;-76
2022/11/12 12:31:13;;;;;;;10.40;7.07;;;14.70;99.10;;;;;;5017566;28;20729;-76
2022/11/12 12:34:05;;;;;;;7.90;6.97;;;14.70;98.50;;;;;;5011677;28;20279;-76
2022/11/12 12:36:54;;;;;;;12.80;7.50;;;14.80;98.90;;;;;;5018250;28;20589;-76
2022/11/12 12:39:46;;;;;;;11.13;6.80;;;14.80;98.50;;;;;;5019250;28;20669;-76
2022/11/12 12:42:37;;;;;;;10.77;7.40;;;14.80;98.30;;;;;;5021820;28;20232;-76
2022/11/12 12:45:38;;;;;;;11.97;7.33;;;14.70;98.60;;;;;;5014875;28;20266;-76
2022/11/12 12:48:28;;;;;;;10.90;7.60;;;14.60;98.20;;;;;;5019575;28;21089;-76
2022/11/12 12:51:14;;;;;;;14.30;8.07;;;14.40;98.40;;;;;;5012849;28;20238;-77
2022/11/12 12:53:59;;;;;;;10.40;7.23;;;14.30;98.70;;;;;;5010271;28;20231;-77
2022/11/12 12:56:47;;;;;;;9.60;6.67;;;14.10;98.90;;;;;;5016301;28;20228;-77
2022/11/12 12:59:34;;;;;;;9.43;6.73;;;14.00;99.10;;;;;;5016925;28;20741;-77
2022/11/12 13:02:24;;;;;;;10.90;7.13;;;13.90;99.30;;;;;;5014247;28;20226;-75
2022/11/12 13:05:24;;;;;;;11.87;7.20;;;13.70;99.10;;;;;;5015646;28;20315;-76
2022/11/12 13:08:12;;;;;;;10.77;7.20;;;13.60;99.30;;;;;;5019306;28;20916;-76
2022/11/12 13:10:58;;;;;;;9.13;7.03;;;13.50;99.30;;;;;;5010920;28;20301;-76
2022/11/12 13:13:44;;;;;;;11.60;6.87;;;13.40;99.30;;;;;;5016856;28;20227;-76
2022/11/12 13:16:55;;;;;;;12.00;8.13;;;13.30;99.50;;;;;;5017053;28;20231;-76
2022/11/12 13:19:47;;;;;;;10.60;6.57;;;13.10;99.60;;;;;;5019541;28;20291;-79
2022/11/12 13:22:49;;;;;;;11.30;7.33;;;13.00;99.90;;;;;;5016735;28;20231;-76
2022/11/12 13:25:35;;;;;;;9.80;7.87;;;12.80;99.90;;;;;;5013846;28;20363;-77
2022/11/12 13:28:20;;;;;;;11.67;8.20;;;12.80;99.90;;;;;;5014698;28;20224;-77
2022/11/12 13:31:25;;;;;;;12.73;9.03;;;12.60;99.90;;;;;;5011461;28;20238;-77
2022/11/12 13:34:20;;;;;;;13.00;8.17;;;12.60;99.90;;;;;;5012692;28;20260;-77
2022/11/12 13:37:18;;;;;;;13.97;10.50;;;12.50;99.90;;;;;;5017157;28;20313;-77
2022/11/12 13:40:09;;;;;;;12.47;8.13;;;12.40;99.90;;;;;;5014620;28;20236;-77
2022/11/12 13:42:56;;;;;;;12.70;8.50;;;12.40;99.90;;;;;;5015224;28;20489;-77
2022/11/12 13:45:47;;;;;;;14.60;10.53;;;12.30;99.90;;;;;;5020990;28;20300;-77
2022/11/12 13:48:44;;;;;;;14.07;8.83;;;12.30;99.90;;;;;;5017894;28;20949;-77
2022/11/12 13:51:38;;;;;;;15.43;9.33;;;12.20;99.90;;;;;;5017935;28;20236;-79
2022/11/12 13:54:37;;;;;;;11.70;8.33;;;12.20;99.90;;;;;;5019546;28;20236;-79
2022/11/12 13:57:28;;;;;;;12.70;9.40;;;12.20;99.90;;;;;;5016582;28;20238;-77
2022/11/12 14:00:25;;;;;;;15.07;9.33;;;12.10;99.90;;;;;;5015556;28;20910;-77
2022/11/12 14:03:17;;;;;;;14.07;9.77;;;12.00;99.90;;;;;;5014540;28;20226;-77
2022/11/12 14:06:07;;;;;;;13.63;8.57;;;12.00;99.90;;;;;;5021555;28;20236;-77
2022/11/12 14:09:05;;;;;;;14.07;8.63;;;12.00;99.90;;;;;;5021134;28;20231;-77
2022/11/12 14:12:17;;;;;;;8.93;7.73;;;11.90;99.90;;;;;;5017812;28;20230;-77
2022/11/12 14:15:17;;;;;;;12.03;8.17;;;11.90;99.90;;;;;;5019662;28;20755;-77
2022/11/12 14:18:13;;;;;;;11.87;7.90;;;11.90;99.90;;;;;;5019483;28;20235;-77
2022/11/12 14:21:05;;;;;;;12.90;7.43;;;11.80;99.90;;;;;;5017560;28;20243;-77
2022/11/12 14:23:50;;;;;;;11.57;8.10;;;11.70;99.90;;;;;;5019644;28;20298;-77
2022/11/12 14:26:41;;;;;;;11.57;7.90;;;11.70;99.90;;;;;;5023745;28;20874;-77
2022/11/12 14:29:27;;;;;;;17.13;8.90;;;11.70;99.90;;;;;;5014571;28;20238;-77
2022/11/12 14:32:13;;;;;;;12.37;7.43;;;11.60;99.90;;;;;;5015482;28;20280;-77
2022/11/12 14:34:58;;;;;;;13.27;7.83;;;11.60;99.90;;;;;;5018248;28;20690;-77
2022/11/12 14:37:50;;;;;;;12.50;9.37;;;11.50;99.90;;;;;;5024365;28;20236;-76
2022/11/12 14:40:37;;;;;;;12.93;8.90;;;11.40;99.90;;;;;;5018459;28;20244;-77
2022/11/12 14:43:26;;;;;;;27.77;17.90;;;11.40;99.90;;;;;;5020864;28;20278;-77
2022/11/12 14:46:26;;;;;;;21.90;14.73;;;11.30;99.90;;;;;;5018317;28;20359;-77
2022/11/12 14:49:19;;;;;;;18.53;12.70;;;11.20;99.90;;;;;;5019058;28;20728;-77
2022/11/12 14:52:10;;;;;;;15.83;14.03;;;11.10;99.90;;;;;;5019471;28;20878;-77
2022/11/12 14:54:58;;;;;;;17.50;11.60;;;11.10;99.90;;;;;;5023512;28;20232;-77